createdAt,value
2023-03-14T00:01:15.217Z,14.80
2023-03-14T00:03:43.523Z,14.80
2023-03-14T00:06:12.276Z,14.80
2023-03-14T00:08:40.571Z,14.80
2023-03-14T00:11:10.132Z,14.80
2023-03-14T00:13:38.576Z,14.80
2023-03-14T00:16:33.160Z,14.80
2023-03-14T00:19:05.890Z,14.80
2023-03-14T00:24:43.377Z,14.70
2023-03-14T00:27:14.753Z,14.70
2023-03-14T00:29:46.110Z,14.60
2023-03-14T00:32:24.763Z,14.60
2023-03-14T00:36:09.061Z,14.50
2023-03-14T00:38:49.063Z,14.50
2023-03-14T00:41:18.995Z,14.40
2023-03-14T00:43:47.602Z,14.40
2023-03-14T00:46:16.259Z,14.40
2023-03-14T00:48:48.191Z,14.30
2023-03-14T00:51:16.942Z,14.30
2023-03-14T00:53:48.217Z,14.30
2023-03-14T00:56:16.776Z,14.30
2023-03-14T00:58:47.144Z,14.30
2023-03-14T01:01:17.855Z,14.20
2023-03-14T01:03:48.690Z,14.20
2023-03-14T01:06:19.986Z,14.20
2023-03-14T01:08:49.010Z,14.20
2023-03-14T01:11:19.088Z,14.20
2023-03-14T01:13:48.098Z,14.10
2023-03-14T01:16:17.387Z,14.10
2023-03-14T01:18:49.344Z,14.10
2023-03-14T01:21:20.385Z,14.10
2023-03-14T01:23:49.170Z,14.10
2023-03-14T01:26:20.338Z,14.10
2023-03-14T01:28:49.645Z,14.10
2023-03-14T01:31:19.509Z,14.10
2023-03-14T01:33:49.202Z,14.10
2023-03-14T01:36:17.864Z,14.10
2023-03-14T01:38:46.661Z,14.10
2023-03-14T01:41:19.939Z,14.00
2023-03-14T01:43:49.251Z,14.00
2023-03-14T01:46:22.879Z,14.00
2023-03-14T01:48:59.239Z,14.00
2023-03-14T01:51:33.999Z,14.00
2023-03-14T01:54:10.555Z,14.00
2023-03-14T01:56:41.024Z,14.00
2023-03-14T01:59:10.770Z,14.00
2023-03-14T02:01:41.927Z,14.00
2023-03-14T02:04:13.128Z,14.00
2023-03-14T02:06:50.858Z,14.00
2023-03-14T02:09:22.111Z,14.00
2023-03-14T02:11:51.464Z,14.00
2023-03-14T02:14:41.732Z,14.00
2023-03-14T02:17:22.721Z,14.00
2023-03-14T02:20:28.003Z,14.00
2023-03-14T02:22:58.886Z,14.00
2023-03-14T02:25:40.856Z,14.00
2023-03-14T02:28:13.810Z,14.20
2023-03-14T02:30:43.282Z,14.00
2023-03-14T02:33:13.761Z,14.00
2023-03-14T02:35:48.624Z,14.00
2023-03-14T02:38:22.371Z,14.00
2023-03-14T02:40:51.694Z,14.00
2023-03-14T02:43:21.777Z,14.00
2023-03-14T02:45:56.944Z,14.00
2023-03-14T02:48:30.176Z,14.00
2023-03-14T02:51:01.159Z,14.00
2023-03-14T02:53:32.440Z,14.00
2023-03-14T02:56:05.307Z,14.00
2023-03-14T02:58:38.319Z,14.00
2023-03-14T03:01:16.736Z,14.00
2023-03-14T03:03:45.580Z,14.00
2023-03-14T03:06:14.149Z,14.00
2023-03-14T03:08:42.533Z,14.00
2023-03-14T03:11:10.899Z,14.00
2023-03-14T03:13:41.753Z,14.00
2023-03-14T03:16:11.401Z,14.00
2023-03-14T03:18:39.880Z,14.00
2023-03-14T03:21:09.924Z,14.00
2023-03-14T03:23:38.280Z,14.00
2023-03-14T03:26:08.403Z,14.00
2023-03-14T03:28:36.987Z,14.00
2023-03-14T03:31:11.504Z,14.00
2023-03-14T03:33:40.867Z,14.00
2023-03-14T03:36:11.124Z,14.00
2023-03-14T03:38:41.225Z,14.00
2023-03-14T03:41:11.257Z,14.00
2023-03-14T03:43:39.664Z,14.00
2023-03-14T03:46:12.608Z,14.00
2023-03-14T03:48:41.422Z,14.00
2023-03-14T03:51:12.930Z,14.00
2023-03-14T03:53:41.296Z,13.90
2023-03-14T03:56:12.830Z,13.90
2023-03-14T03:58:43.142Z,13.80
2023-03-14T04:01:13.009Z,13.90
2023-03-14T04:03:42.684Z,13.90
2023-03-14T04:06:12.619Z,13.80
2023-03-14T04:08:42.607Z,13.80
2023-03-14T04:11:14.810Z,13.80
2023-03-14T04:14:06.898Z,13.80
2023-03-14T04:16:37.197Z,13.70
2023-03-14T04:19:12.435Z,13.70
2023-03-14T04:21:41.570Z,13.70
2023-03-14T04:24:12.316Z,13.70
2023-03-14T04:26:40.702Z,13.70
2023-03-14T04:29:13.215Z,13.60
2023-03-14T04:31:43.974Z,13.80
2023-03-14T04:34:12.613Z,13.60
2023-03-14T04:36:50.591Z,13.60
2023-03-14T04:39:23.703Z,13.60
2023-03-14T04:42:15.148Z,13.50
2023-03-14T04:44:44.354Z,13.60
2023-03-14T04:47:15.278Z,13.50
2023-03-14T04:49:44.929Z,13.50
2023-03-14T04:52:16.095Z,13.50
2023-03-14T04:54:44.913Z,13.50
2023-03-14T04:57:27.948Z,13.40
2023-03-14T04:59:57.116Z,13.40
2023-03-14T05:02:53.400Z,13.40
2023-03-14T05:05:54.461Z,13.50
2023-03-14T05:09:07.731Z,13.40
2023-03-14T05:11:44.571Z,13.40
2023-03-14T05:14:53.640Z,13.40
2023-03-14T05:17:40.562Z,13.40
2023-03-14T05:20:38.634Z,13.50
2023-03-14T05:23:25.780Z,13.50
2023-03-14T05:26:18.939Z,13.50
2023-03-14T05:29:09.914Z,13.50
2023-03-14T05:32:03.835Z,13.50
2023-03-14T05:35:12.390Z,13.50
2023-03-14T05:37:59.357Z,13.50
2023-03-14T05:40:57.061Z,13.50
2023-03-14T05:43:56.835Z,13.50
2023-03-14T05:46:39.628Z,13.50
2023-03-14T05:49:40.189Z,13.40
2023-03-14T05:52:34.563Z,13.50
2023-03-14T05:58:47.597Z,13.40
2023-03-14T06:01:35.838Z,13.40
2023-03-14T06:04:15.954Z,13.40
2023-03-14T06:06:49.317Z,13.40
2023-03-14T06:09:27.942Z,13.40
2023-03-14T06:12:08.871Z,13.40
2023-03-14T06:14:45.046Z,13.40
2023-03-14T06:17:16.261Z,13.40
2023-03-14T06:19:56.824Z,13.40
2023-03-14T06:22:25.634Z,13.70
2023-03-14T06:25:12.135Z,13.40
2023-03-14T06:27:43.156Z,13.40
2023-03-14T06:30:16.062Z,13.40
2023-03-14T06:32:49.157Z,13.40
2023-03-14T06:35:26.177Z,13.40
2023-03-14T06:38:05.399Z,13.30
2023-03-14T06:40:35.515Z,13.30
2023-03-14T06:43:20.136Z,13.30
2023-03-14T06:45:52.279Z,13.30
2023-03-14T06:48:30.513Z,13.30
2023-03-14T06:50:58.914Z,13.30
2023-03-14T06:53:27.744Z,13.30
2023-03-14T06:55:56.704Z,13.30
2023-03-14T06:58:31.371Z,13.30
2023-03-14T07:01:00.450Z,13.30
2023-03-14T07:03:34.461Z,13.30
2023-03-14T07:06:03.045Z,13.30
2023-03-14T07:08:31.324Z,13.30
2023-03-14T07:11:01.827Z,13.30
2023-03-14T07:13:31.829Z,13.40
2023-03-14T07:16:05.872Z,13.30
2023-03-14T07:18:35.511Z,13.40
2023-03-14T07:21:06.751Z,13.30
2023-03-14T07:23:37.818Z,13.30
2023-03-14T07:26:06.434Z,13.10
2023-03-14T07:28:37.537Z,13.40
2023-03-14T07:31:11.465Z,13.40
2023-03-14T07:33:40.757Z,13.40
2023-03-14T07:36:10.695Z,13.40
2023-03-14T07:38:40.585Z,13.40
2023-03-14T07:41:25.094Z,13.40
2023-03-14T07:44:13.323Z,13.40
2023-03-14T07:46:42.249Z,13.40
2023-03-14T07:49:10.564Z,13.40
2023-03-14T07:51:38.769Z,13.40
2023-03-14T07:54:07.098Z,13.40
2023-03-14T07:56:35.641Z,13.40
2023-03-14T07:59:04.569Z,13.40
2023-03-14T08:01:34.364Z,13.40
2023-03-14T08:04:02.692Z,13.50
2023-03-14T08:06:31.020Z,13.40
2023-03-14T08:08:59.298Z,13.50
2023-03-14T08:11:27.574Z,13.50
2023-03-14T08:13:55.744Z,13.50
2023-03-14T08:16:24.321Z,13.50
2023-03-14T08:18:54.096Z,13.50
2023-03-14T08:21:22.479Z,13.50
2023-03-14T08:23:50.837Z,13.50
2023-03-14T08:26:19.141Z,13.50
2023-03-14T08:28:47.569Z,13.50
2023-03-14T08:31:19.309Z,13.50
2023-03-14T08:33:47.788Z,13.50
2023-03-14T08:36:21.471Z,13.50
2023-03-14T08:38:50.874Z,13.50
2023-03-14T08:41:19.293Z,13.50
2023-03-14T08:43:47.881Z,13.50
2023-03-14T08:46:16.326Z,13.80
2023-03-14T08:48:44.858Z,13.50
2023-03-14T08:51:15.933Z,13.50
2023-03-14T08:53:46.069Z,13.40
2023-03-14T08:56:14.300Z,13.50
2023-03-14T08:58:42.617Z,13.40
2023-03-14T09:01:12.902Z,13.40
2023-03-14T09:03:41.347Z,13.50
2023-03-14T09:06:11.447Z,13.40
2023-03-14T09:08:40.026Z,13.10
2023-03-14T09:11:11.210Z,12.70
2023-03-14T09:13:39.830Z,12.10
2023-03-14T09:16:09.280Z,11.80
2023-03-14T09:18:38.103Z,11.60
2023-03-14T09:21:06.794Z,11.40
2023-03-14T09:23:35.104Z,11.30
2023-03-14T09:26:03.463Z,11.10
2023-03-14T09:28:33.156Z,11.00
2023-03-14T09:31:09.098Z,10.80
2023-03-14T09:33:37.469Z,10.70
2023-03-14T09:36:06.796Z,10.60
2023-03-14T09:38:35.454Z,10.50
2023-03-14T09:41:13.161Z,10.50
2023-03-14T09:43:45.072Z,10.40
2023-03-14T09:46:14.281Z,10.30
2023-03-14T09:48:43.554Z,10.30
2023-03-14T09:51:17.081Z,10.30
2023-03-14T09:53:47.203Z,10.30
2023-03-14T09:56:21.123Z,10.30
2023-03-14T09:58:55.853Z,10.30
2023-03-14T10:01:31.121Z,10.20
2023-03-14T10:04:04.127Z,10.20
2023-03-14T10:06:33.623Z,10.10
2023-03-14T10:09:03.317Z,10.20
2023-03-14T10:11:31.610Z,10.20
2023-03-14T10:14:09.859Z,10.20
2023-03-14T10:16:42.437Z,10.40
2023-03-14T10:19:13.457Z,10.20
2023-03-14T10:21:43.494Z,10.20
2023-03-14T10:24:20.599Z,10.10
2023-03-14T10:26:52.399Z,10.00
2023-03-14T10:29:22.884Z,10.00
2023-03-14T10:31:55.107Z,10.00
2023-03-14T10:34:26.337Z,9.80
2023-03-14T10:36:56.201Z,9.90
2023-03-14T10:39:39.829Z,9.90
2023-03-14T10:42:19.174Z,10.00
2023-03-14T10:44:56.809Z,10.00
2023-03-14T10:47:29.205Z,9.90
2023-03-14T10:49:57.685Z,10.00
2023-03-14T10:52:46.019Z,9.90
2023-03-14T10:55:17.102Z,9.80
2023-03-14T10:57:46.093Z,9.80
2023-03-14T11:00:21.397Z,9.80
2023-03-14T11:03:03.728Z,9.80
2023-03-14T11:05:42.973Z,10.20
2023-03-14T11:08:20.268Z,9.80
2023-03-14T11:10:53.407Z,9.80
2023-03-14T11:13:27.543Z,9.90
2023-03-14T11:16:04.236Z,10.00
2023-03-14T11:19:06.254Z,10.10
2023-03-14T11:21:40.012Z,10.10
2023-03-14T11:24:27.849Z,10.40
2023-03-14T11:27:02.202Z,10.10
2023-03-14T11:29:37.499Z,10.10
2023-03-14T11:32:16.108Z,10.20
2023-03-14T11:34:52.085Z,10.10
2023-03-14T11:37:27.368Z,10.10
2023-03-14T11:40:03.777Z,10.20
2023-03-14T11:42:35.010Z,10.20
2023-03-14T11:45:04.757Z,10.30
2023-03-14T11:47:39.533Z,10.30
2023-03-14T11:50:17.771Z,10.40
2023-03-14T11:52:50.736Z,10.40
2023-03-14T11:55:23.451Z,10.40
2023-03-14T11:57:52.940Z,10.40
2023-03-14T12:00:23.158Z,10.30
2023-03-14T12:02:57.846Z,10.20
2023-03-14T12:05:55.507Z,10.10
2023-03-14T12:08:49.077Z,9.90
2023-03-14T12:11:34.039Z,9.80
2023-03-14T12:14:03.175Z,9.80
2023-03-14T12:16:40.780Z,9.80
2023-03-14T12:19:32.736Z,9.90
2023-03-14T12:22:07.753Z,9.80
2023-03-14T12:24:41.130Z,9.70
2023-03-14T12:27:35.780Z,9.80
2023-03-14T12:30:18.370Z,9.90
2023-03-14T12:33:14.816Z,9.90
2023-03-14T12:35:44.243Z,9.90
2023-03-14T12:38:16.815Z,10.20
2023-03-14T12:40:58.542Z,10.00
2023-03-14T12:43:29.606Z,10.00
2023-03-14T12:46:17.622Z,9.90
2023-03-14T12:48:47.278Z,9.80
2023-03-14T12:51:16.985Z,9.70
2023-03-14T12:54:01.901Z,9.80
2023-03-14T12:56:46.268Z,9.60
2023-03-14T12:59:31.799Z,10.00
2023-03-14T13:02:20.616Z,9.50
2023-03-14T13:04:51.270Z,9.50
2023-03-14T13:07:35.316Z,9.50
2023-03-14T13:10:06.787Z,9.60
2023-03-14T13:12:50.034Z,9.60
2023-03-14T13:15:33.398Z,9.60
2023-03-14T13:18:05.559Z,9.70
2023-03-14T13:20:37.482Z,9.80
2023-03-14T13:23:06.626Z,9.80
2023-03-14T13:25:37.210Z,9.80
2023-03-14T13:28:06.287Z,10.10
2023-03-14T13:30:42.630Z,9.80
2023-03-14T13:33:17.541Z,9.70
2023-03-14T13:35:47.763Z,9.70
2023-03-14T13:38:20.168Z,9.60
2023-03-14T13:40:49.741Z,9.60
2023-03-14T13:43:20.972Z,9.80
2023-03-14T13:45:58.278Z,9.80
2023-03-14T13:48:31.546Z,9.90
2023-03-14T13:51:03.662Z,9.80
2023-03-14T13:53:32.559Z,9.80
2023-03-14T13:56:04.760Z,9.90
2023-03-14T13:58:34.712Z,9.90
2023-03-14T14:01:07.511Z,10.00
2023-03-14T14:03:41.899Z,10.00
2023-03-14T14:06:23.598Z,10.10
2023-03-14T14:08:52.138Z,10.10
2023-03-14T14:11:35.481Z,10.20
2023-03-14T14:14:15.710Z,10.20
2023-03-14T14:16:46.596Z,10.20
2023-03-14T14:19:17.915Z,10.30
2023-03-14T14:21:46.494Z,10.60
2023-03-14T14:24:17.041Z,10.30
2023-03-14T14:26:49.858Z,10.30
2023-03-14T14:29:28.314Z,10.30
2023-03-14T14:32:14.115Z,10.30
2023-03-14T14:34:50.570Z,10.30
2023-03-14T14:37:25.143Z,10.30
2023-03-14T14:39:57.921Z,10.30
2023-03-14T14:42:29.685Z,10.30
2023-03-14T14:44:59.703Z,10.30
2023-03-14T14:47:30.501Z,10.30
2023-03-14T14:50:05.544Z,10.40
2023-03-14T14:52:39.790Z,10.40
2023-03-14T14:55:15.285Z,10.40
2023-03-14T14:57:51.687Z,10.40
2023-03-14T15:00:23.439Z,10.40
2023-03-14T15:02:55.457Z,10.50
2023-03-14T15:05:27.351Z,10.50
2023-03-14T15:07:56.060Z,10.40
2023-03-14T15:10:27.409Z,10.40
2023-03-14T15:12:55.765Z,10.40
2023-03-14T15:15:24.304Z,10.60
2023-03-14T15:17:52.881Z,10.40
2023-03-14T15:20:24.802Z,10.40
2023-03-14T15:22:55.001Z,10.40
2023-03-14T15:25:47.253Z,10.40
2023-03-14T15:28:20.494Z,10.40
2023-03-14T15:30:49.725Z,10.40
2023-03-14T15:33:18.546Z,10.40
2023-03-14T15:35:48.406Z,10.40
2023-03-14T15:38:22.019Z,10.30
2023-03-14T15:40:50.894Z,10.20
2023-03-14T15:43:19.822Z,10.20
2023-03-14T15:45:48.563Z,10.10
2023-03-14T15:48:18.441Z,10.10
2023-03-14T15:50:46.824Z,10.10
2023-03-14T15:53:15.898Z,10.00
2023-03-14T15:55:45.761Z,10.00
2023-03-14T15:58:21.232Z,10.00
2023-03-14T16:00:51.238Z,10.00
2023-03-14T16:03:19.887Z,10.00
2023-03-14T16:05:48.665Z,9.90
2023-03-14T16:08:17.507Z,10.00
2023-03-14T16:10:48.068Z,10.00
2023-03-14T16:13:17.242Z,10.00
2023-03-14T16:15:55.029Z,10.00
2023-03-14T16:18:23.594Z,10.00
2023-03-14T16:20:56.701Z,10.10
2023-03-14T16:23:25.885Z,10.10
2023-03-14T16:25:56.513Z,10.10
2023-03-14T16:28:26.181Z,10.10
2023-03-14T16:31:01.152Z,10.00
2023-03-14T16:33:29.854Z,10.00
2023-03-14T16:36:01.249Z,10.00
2023-03-14T16:41:21.191Z,10.00
2023-03-14T16:43:52.173Z,9.90
2023-03-14T16:46:25.058Z,9.90
2023-03-14T16:48:53.570Z,9.90
2023-03-14T16:51:22.400Z,10.00
2023-03-14T16:53:51.149Z,9.90
2023-03-14T16:56:21.045Z,9.90
2023-03-14T16:58:50.796Z,9.90
2023-03-14T17:01:20.874Z,9.90
2023-03-14T17:03:50.798Z,9.80
2023-03-14T17:06:21.598Z,9.80
2023-03-14T17:08:49.949Z,9.80
2023-03-14T17:11:18.575Z,9.80
2023-03-14T17:13:48.418Z,9.80
2023-03-14T17:16:16.808Z,9.80
2023-03-14T17:18:45.246Z,9.80
2023-03-14T17:21:13.628Z,9.70
2023-03-14T17:23:41.939Z,9.70
2023-03-14T17:26:10.500Z,9.60
2023-03-14T17:28:39.018Z,9.50
2023-03-14T17:31:09.967Z,9.40
2023-03-14T17:33:38.556Z,9.30
2023-03-14T17:36:08.474Z,9.30
2023-03-14T17:38:37.534Z,9.30
2023-03-14T17:41:08.644Z,9.30
2023-03-14T17:43:37.346Z,9.20
2023-03-14T17:46:11.828Z,9.20
2023-03-14T17:48:40.521Z,9.20
2023-03-14T17:51:09.260Z,9.10
2023-03-14T17:53:38.126Z,9.20
2023-03-14T17:56:07.075Z,9.10
2023-03-14T17:58:37.569Z,9.10
2023-03-14T18:01:15.740Z,9.10
2023-03-14T18:03:45.708Z,9.10
2023-03-14T18:06:15.806Z,9.00
2023-03-14T18:08:44.786Z,9.00
2023-03-14T18:11:13.619Z,9.00
2023-03-14T18:13:42.122Z,9.10
2023-03-14T18:16:15.096Z,9.10
2023-03-14T18:18:45.839Z,9.20
2023-03-14T18:21:15.528Z,9.20
2023-03-14T18:23:43.998Z,9.20
2023-03-14T18:26:12.478Z,9.20
2023-03-14T18:28:41.091Z,9.20
2023-03-14T18:31:11.414Z,9.20
2023-03-14T18:33:42.662Z,9.20
2023-03-14T18:36:12.339Z,9.20
2023-03-14T18:38:43.208Z,9.20
2023-03-14T18:41:13.174Z,9.20
2023-03-14T18:43:42.070Z,9.20
2023-03-14T18:46:10.635Z,9.10
2023-03-14T18:48:42.533Z,9.10
2023-03-14T18:51:12.464Z,9.10
2023-03-14T18:53:42.225Z,9.20
2023-03-14T18:56:12.750Z,9.10
2023-03-14T18:58:42.582Z,9.20
2023-03-14T19:01:12.008Z,9.20
2023-03-14T19:03:42.244Z,9.20
2023-03-14T19:06:12.354Z,9.20
2023-03-14T19:08:42.079Z,9.20
2023-03-14T19:11:12.785Z,9.20
2023-03-14T19:13:42.474Z,9.20
2023-03-14T19:16:13.990Z,9.20
2023-03-14T19:18:43.889Z,9.10
2023-03-14T19:21:14.373Z,9.10
2023-03-14T19:23:46.489Z,9.00
2023-03-14T19:26:16.287Z,9.00
2023-03-14T19:28:44.731Z,9.00
2023-03-14T19:31:13.174Z,9.00
2023-03-14T19:33:43.477Z,9.00
2023-03-14T19:36:23.534Z,9.00
2023-03-14T19:38:53.130Z,9.00
2023-03-14T19:41:23.774Z,9.00
2023-03-14T19:43:53.024Z,9.30
2023-03-14T19:46:21.728Z,9.10
2023-03-14T19:48:54.326Z,9.10
2023-03-14T19:51:23.588Z,9.10
2023-03-14T19:53:52.397Z,9.10
2023-03-14T19:56:23.891Z,9.20
2023-03-14T19:58:52.834Z,9.20
2023-03-14T20:01:21.798Z,9.20
2023-03-14T20:03:51.534Z,9.20
2023-03-14T20:06:19.892Z,9.20
2023-03-14T20:08:48.579Z,9.20
2023-03-14T20:11:17.208Z,9.20
2023-03-14T20:13:45.637Z,9.20
2023-03-14T20:16:14.212Z,9.20
2023-03-14T20:18:43.132Z,9.20
2023-03-14T20:21:13.733Z,9.20
2023-03-14T20:23:44.110Z,9.20
2023-03-14T20:26:12.789Z,9.20
2023-03-14T20:28:42.695Z,9.30
2023-03-14T20:31:20.977Z,9.20
2023-03-14T20:33:51.632Z,9.20
2023-03-14T20:36:21.513Z,9.20
2023-03-14T20:38:52.765Z,9.20
2023-03-14T20:41:21.591Z,9.20
2023-03-14T20:43:53.671Z,9.20
2023-03-14T20:46:24.011Z,9.20
2023-03-14T20:48:55.608Z,9.20
2023-03-14T20:51:35.491Z,9.50
2023-03-14T20:54:03.832Z,9.20
2023-03-14T20:56:38.000Z,9.20
2023-03-14T20:59:07.963Z,9.20
2023-03-14T21:01:37.922Z,9.10
2023-03-14T21:04:08.315Z,9.10
2023-03-14T21:06:42.290Z,9.20
2023-03-14T21:09:13.277Z,9.20
2023-03-14T21:11:47.522Z,9.10
2023-03-14T21:14:17.696Z,9.20
2023-03-14T21:17:00.404Z,9.20
2023-03-14T21:19:34.053Z,9.10
2023-03-14T21:22:06.379Z,9.10
2023-03-14T21:24:35.396Z,9.10
2023-03-14T21:27:06.134Z,9.20
2023-03-14T21:29:37.281Z,9.10
2023-03-14T21:32:06.295Z,9.10
2023-03-14T21:34:35.081Z,9.10
2023-03-14T21:37:05.299Z,9.40
2023-03-14T21:39:33.920Z,9.10
2023-03-14T21:42:02.310Z,9.10
2023-03-14T21:44:36.988Z,9.10
2023-03-14T21:47:06.440Z,9.10
2023-03-14T21:49:38.221Z,9.10
2023-03-14T21:52:09.149Z,9.10
2023-03-14T21:54:37.766Z,9.10
2023-03-14T21:57:07.566Z,9.10
2023-03-14T21:59:37.179Z,9.10
2023-03-14T22:02:07.712Z,9.00
2023-03-14T22:04:36.206Z,9.00
2023-03-14T22:07:04.996Z,9.00
2023-03-14T22:09:35.204Z,9.00
2023-03-14T22:12:03.468Z,9.00
2023-03-14T22:14:31.798Z,9.10
2023-03-14T22:17:01.149Z,9.00
2023-03-14T22:19:29.583Z,9.00
2023-03-14T22:21:58.092Z,9.00
2023-03-14T22:24:26.606Z,9.00
2023-03-14T22:26:56.959Z,9.30
2023-03-14T22:29:25.748Z,9.00
2023-03-14T22:31:53.996Z,9.00
2023-03-14T22:34:22.672Z,8.90
2023-03-14T22:36:51.002Z,8.90
2023-03-14T22:39:19.556Z,8.90
2023-03-14T22:41:47.730Z,8.80
2023-03-14T22:44:17.534Z,8.80
2023-03-14T22:46:45.997Z,8.80
2023-03-14T22:49:14.398Z,8.80
2023-03-14T22:51:42.917Z,8.80
2023-03-14T22:54:11.571Z,8.80
2023-03-14T22:56:39.958Z,8.70
2023-03-14T22:59:08.457Z,8.70
2023-03-14T23:01:38.034Z,8.80
2023-03-14T23:04:06.953Z,8.80
2023-03-14T23:06:35.265Z,8.80
2023-03-14T23:09:04.361Z,8.80
2023-03-14T23:11:35.544Z,8.70
2023-03-14T23:14:04.253Z,8.80
2023-03-14T23:16:39.867Z,8.80
2023-03-14T23:19:11.088Z,8.90
2023-03-14T23:21:39.456Z,8.80
2023-03-14T23:24:08.476Z,9.10
2023-03-14T23:26:36.679Z,8.80
2023-03-14T23:29:06.541Z,8.80
2023-03-14T23:31:35.004Z,8.80
2023-03-14T23:34:03.505Z,8.80
2023-03-14T23:36:37.095Z,8.80
2023-03-14T23:39:05.943Z,8.80
2023-03-14T23:41:34.526Z,8.80
2023-03-14T23:44:02.766Z,8.80
2023-03-14T23:46:31.690Z,8.70
2023-03-14T23:49:00.186Z,8.70
2023-03-14T23:51:28.453Z,8.70
2023-03-14T23:53:58.029Z,8.70
2023-03-14T23:56:26.426Z,8.70
2023-03-14T23:58:54.574Z,8.80
